sensor_id;sensor_type;location;lat;lon;timestamp;pressure;altitude;pressure_sealevel;temperature;humidity
46944;BME280;32678;43.852;25.952;2022-12-19T00:02:27;103448.69;;;3.67;69.32
46944;BME280;32678;43.852;25.952;2022-12-19T00:07:23;103451.16;;;3.86;69.39
46944;BME280;32678;43.852;25.952;2022-12-19T00:12:22;103468.50;;;3.87;70.14
46944;BME280;32678;43.852;25.952;2022-12-19T00:17:19;103469.41;;;3.88;71.44
46944;BME280;32678;43.852;25.952;2022-12-19T00:22:18;103472.97;;;3.91;71.61
46944;BME280;32678;43.852;25.952;2022-12-19T00:27:15;103478.66;;;4.04;69.05
46944;BME280;32678;43.852;25.952;2022-12-19T00:32:12;103468.34;;;3.61;66.67
46944;BME280;32678;43.852;25.952;2022-12-19T00:37:12;103481.13;;;3.78;66.85
46944;BME280;32678;43.852;25.952;2022-12-19T00:42:09;103474.47;;;3.63;67.18
46944;BME280;32678;43.852;25.952;2022-12-19T00:47:06;103474.44;;;3.61;67.21
46944;BME280;32678;43.852;25.952;2022-12-19T00:52:05;103470.59;;;3.74;65.79
46944;BME280;32678;43.852;25.952;2022-12-19T00:57:03;103464.09;;;3.40;65.49
46944;BME280;32678;43.852;25.952;2022-12-19T01:02:00;103468.94;;;3.76;64.96
46944;BME280;32678;43.852;25.952;2022-12-19T01:06:58;103471.88;;;3.63;64.81
46944;BME280;32678;43.852;25.952;2022-12-19T01:12:01;103468.19;;;3.56;65.74
46944;BME280;32678;43.852;25.952;2022-12-19T01:17:22;103474.66;;;3.67;65.51
46944;BME280;32678;43.852;25.952;2022-12-19T01:22:21;103480.19;;;3.54;66.41
46944;BME280;32678;43.852;25.952;2022-12-19T01:27:22;103482.72;;;3.10;67.36
46944;BME280;32678;43.852;25.952;2022-12-19T01:32:21;103493.22;;;2.92;68.82
46944;BME280;32678;43.852;25.952;2022-12-19T01:37:21;103500.53;;;2.81;69.63
46944;BME280;32678;43.852;25.952;2022-12-19T01:42:19;103501.41;;;2.82;67.97
46944;BME280;32678;43.852;25.952;2022-12-19T01:47:19;103505.19;;;2.50;68.80
46944;BME280;32678;43.852;25.952;2022-12-19T01:52:17;103505.16;;;2.69;68.66
46944;BME280;32678;43.852;25.952;2022-12-19T01:57:21;103509.22;;;2.63;69.58
46944;BME280;32678;43.852;25.952;2022-12-19T02:02:18;103512.97;;;2.31;70.73
46944;BME280;32678;43.852;25.952;2022-12-19T02:07:17;103518.00;;;2.08;71.89
46944;BME280;32678;43.852;25.952;2022-12-19T02:12:15;103521.81;;;2.16;71.85
46944;BME280;32678;43.852;25.952;2022-12-19T02:17:20;103532.47;;;2.23;71.55
46944;BME280;32678;43.852;25.952;2022-12-19T02:22:25;103536.09;;;1.89;73.68
46944;BME280;32678;43.852;25.952;2022-12-19T02:32:47;103527.28;;;2.23;70.77
46944;BME280;32678;43.852;25.952;2022-12-19T02:37:47;103541.59;;;2.34;69.31
46944;BME280;32678;43.852;25.952;2022-12-19T02:42:49;103542.31;;;2.12;68.81
46944;BME280;32678;43.852;25.952;2022-12-19T02:47:49;103547.50;;;2.12;68.32
46944;BME280;32678;43.852;25.952;2022-12-19T02:52:47;103540.22;;;2.23;67.51
46944;BME280;32678;43.852;25.952;2022-12-19T02:57:53;103535.25;;;1.71;69.54
46944;BME280;32678;43.852;25.952;2022-12-19T03:02:58;103539.66;;;1.73;70.11
46944;BME280;32678;43.852;25.952;2022-12-19T03:08:00;103540.25;;;1.86;70.24
46944;BME280;32678;43.852;25.952;2022-12-19T03:13:01;103532.78;;;1.74;70.49
46944;BME280;32678;43.852;25.952;2022-12-19T03:18:05;103545.06;;;1.60;71.29
46944;BME280;32678;43.852;25.952;2022-12-19T03:23:03;103560.25;;;1.72;71.45
46944;BME280;32678;43.852;25.952;2022-12-19T03:28:03;103562.88;;;1.54;71.58
46944;BME280;32678;43.852;25.952;2022-12-19T03:33:02;103556.53;;;1.65;70.24
46944;BME280;32678;43.852;25.952;2022-12-19T03:38:00;103555.53;;;1.63;69.02
46944;BME280;32678;43.852;25.952;2022-12-19T03:42:58;103565.94;;;1.83;68.81
46944;BME280;32678;43.852;25.952;2022-12-19T03:48:13;103562.88;;;1.54;70.06
46944;BME280;32678;43.852;25.952;2022-12-19T03:53:14;103560.72;;;1.63;69.79
46944;BME280;32678;43.852;25.952;2022-12-19T03:58:17;103568.03;;;1.72;70.39
46944;BME280;32678;43.852;25.952;2022-12-19T04:03:15;103589.00;;;1.43;71.63
46944;BME280;32678;43.852;25.952;2022-12-19T04:08:14;103599.88;;;1.19;72.82
46944;BME280;32678;43.852;25.952;2022-12-19T04:13:12;103608.28;;;1.49;71.05
46944;BME280;32678;43.852;25.952;2022-12-19T04:18:10;103613.22;;;1.27;70.46
46944;BME280;32678;43.852;25.952;2022-12-19T04:23:10;103623.44;;;1.42;70.56
46944;BME280;32678;43.852;25.952;2022-12-19T04:28:11;103624.16;;;1.39;69.33
46944;BME280;32678;43.852;25.952;2022-12-19T04:33:09;103637.00;;;1.38;69.97
46944;BME280;32678;43.852;25.952;2022-12-19T04:38:06;103632.69;;;1.20;70.93
46944;BME280;32678;43.852;25.952;2022-12-19T04:43:04;103637.81;;;1.37;70.99
46944;BME280;32678;43.852;25.952;2022-12-19T04:48:03;103644.47;;;1.15;70.81
46944;BME280;32678;43.852;25.952;2022-12-19T04:53:03;103648.69;;;0.97;71.91
46944;BME280;32678;43.852;25.952;2022-12-19T04:58:00;103671.53;;;0.90;72.16
46944;BME280;32678;43.852;25.952;2022-12-19T05:02:56;103670.06;;;1.27;71.41
46944;BME280;32678;43.852;25.952;2022-12-19T05:07:54;103658.44;;;1.19;71.92
46944;BME280;32678;43.852;25.952;2022-12-19T05:12:52;103680.06;;;0.88;72.16
46944;BME280;32678;43.852;25.952;2022-12-19T05:17:49;103671.44;;;1.04;72.55
46944;BME280;32678;43.852;25.952;2022-12-19T05:22:46;103684.81;;;0.65;73.08
46944;BME280;32678;43.852;25.952;2022-12-19T05:27:44;103682.72;;;0.58;73.70
46944;BME280;32678;43.852;25.952;2022-12-19T05:32:41;103687.69;;;0.85;72.85
46944;BME280;32678;43.852;25.952;2022-12-19T05:37:37;103692.25;;;0.75;72.89
46944;BME280;32678;43.852;25.952;2022-12-19T05:42:34;103697.72;;;1.12;71.16
46944;BME280;32678;43.852;25.952;2022-12-19T05:47:32;103714.78;;;0.94;71.20
46944;BME280;32678;43.852;25.952;2022-12-19T05:52:29;103714.06;;;0.80;71.36
46944;BME280;32678;43.852;25.952;2022-12-19T05:57:26;103723.81;;;0.69;72.50
46944;BME280;32678;43.852;25.952;2022-12-19T06:02:24;103723.75;;;0.68;72.64
46944;BME280;32678;43.852;25.952;2022-12-19T06:07:23;103723.09;;;0.72;72.03
46944;BME280;32678;43.852;25.952;2022-12-19T06:12:33;103725.69;;;0.88;71.14
46944;BME280;32678;43.852;25.952;2022-12-19T06:17:32;103735.16;;;0.88;71.52
46944;BME280;32678;43.852;25.952;2022-12-19T06:22:32;103747.22;;;0.72;71.58
46944;BME280;32678;43.852;25.952;2022-12-19T06:27:39;103751.66;;;0.75;71.41
46944;BME280;32678;43.852;25.952;2022-12-19T06:32:41;103753.41;;;1.07;71.49
46944;BME280;32678;43.852;25.952;2022-12-19T06:38:10;103764.31;;;1.01;70.52
46944;BME280;32678;43.852;25.952;2022-12-19T06:43:15;103766.25;;;1.21;70.04
46944;BME280;32678;43.852;25.952;2022-12-19T06:48:14;103766.25;;;1.05;69.57
46944;BME280;32678;43.852;25.952;2022-12-19T06:53:14;103774.75;;;0.88;71.10
46944;BME280;32678;43.852;25.952;2022-12-19T06:58:14;103773.13;;;1.21;70.19
46944;BME280;32678;43.852;25.952;2022-12-19T07:03:23;103779.25;;;1.39;69.03
46944;BME280;32678;43.852;25.952;2022-12-19T07:08:35;103791.91;;;1.67;67.77
46944;BME280;32678;43.852;25.952;2022-12-19T07:13:35;103798.88;;;1.68;67.39
46944;BME280;32678;43.852;25.952;2022-12-19T07:18:43;103767.84;;;0.87;67.04
46944;BME280;32678;43.852;25.952;2022-12-19T07:23:41;103821.88;;;0.84;67.57
46944;BME280;32678;43.852;25.952;2022-12-19T07:28:46;103826.00;;;1.27;66.68
46944;BME280;32678;43.852;25.952;2022-12-19T07:33:46;103823.63;;;1.30;66.30
46944;BME280;32678;43.852;25.952;2022-12-19T07:38:59;103833.25;;;1.65;65.58
46944;BME280;32678;43.852;25.952;2022-12-19T07:44:00;103841.41;;;1.10;66.07
46944;BME280;32678;43.852;25.952;2022-12-19T07:49:17;103851.25;;;1.32;65.81
46944;BME280;32678;43.852;25.952;2022-12-19T07:54:38;103842.94;;;1.53;65.00
46944;BME280;32678;43.852;25.952;2022-12-19T07:59:47;103854.41;;;1.58;65.65
46944;BME280;32678;43.852;25.952;2022-12-19T08:04:44;103858.03;;;1.46;66.39
46944;BME280;32678;43.852;25.952;2022-12-19T08:09:45;103857.72;;;1.56;64.50
46944;BME280;32678;43.852;25.952;2022-12-19T08:14:43;103853.28;;;1.69;64.26
46944;BME280;32678;43.852;25.952;2022-12-19T08:19:42;103857.38;;;1.03;65.92
46944;BME280;32678;43.852;25.952;2022-12-19T08:24:39;103861.94;;;1.07;66.52
46944;BME280;32678;43.852;25.952;2022-12-19T08:29:42;103859.91;;;1.01;66.45
46944;BME280;32678;43.852;25.952;2022-12-19T08:34:39;103857.31;;;1.48;66.27
46944;BME280;32678;43.852;25.952;2022-12-19T08:39:52;103856.59;;;1.51;65.36
46944;BME280;32678;43.852;25.952;2022-12-19T08:45:06;103856.06;;;1.25;65.47
46944;BME280;32678;43.852;25.952;2022-12-19T08:50:31;103857.56;;;1.37;65.07
46944;BME280;32678;43.852;25.952;2022-12-19T09:12:52;103849.38;;;2.10;63.38
46944;BME280;32678;43.852;25.952;2022-12-19T09:18:20;103837.56;;;1.99;64.84
46944;BME280;32678;43.852;25.952;2022-12-19T09:24:01;103827.66;;;1.58;65.84
46944;BME280;32678;43.852;25.952;2022-12-19T09:29:19;103816.97;;;1.84;65.49
46944;BME280;32678;43.852;25.952;2022-12-19T09:35:30;103807.00;;;2.26;64.70
46944;BME280;32678;43.852;25.952;2022-12-19T09:40:41;103807.69;;;2.05;65.44
46944;BME280;32678;43.852;25.952;2022-12-19T09:45:51;103799.75;;;2.18;65.23
46944;BME280;32678;43.852;25.952;2022-12-19T09:51:02;103796.28;;;2.36;65.00
46944;BME280;32678;43.852;25.952;2022-12-19T09:56:18;103782.78;;;1.90;65.90
46944;BME280;32678;43.852;25.952;2022-12-19T10:01:47;103787.75;;;2.03;64.82
46944;BME280;32678;43.852;25.952;2022-12-19T10:07:00;103776.38;;;2.17;63.99
46944;BME280;32678;43.852;25.952;2022-12-19T10:13:20;103784.59;;;1.92;65.36
46944;BME280;32678;43.852;25.952;2022-12-19T10:18:28;103769.50;;;2.17;63.46
46944;BME280;32678;43.852;25.952;2022-12-19T10:23:43;103742.66;;;2.33;62.75
46944;BME280;32678;43.852;25.952;2022-12-19T10:29:22;103775.56;;;2.18;63.89
46944;BME280;32678;43.852;25.952;2022-12-19T10:34:29;103763.38;;;2.51;64.02
46944;BME280;32678;43.852;25.952;2022-12-19T10:39:40;103758.16;;;2.15;64.29
46944;BME280;32678;43.852;25.952;2022-12-19T10:44:42;103762.91;;;2.06;64.90
46944;BME280;32678;43.852;25.952;2022-12-19T11:09:00;103737.19;;;2.09;66.86
46944;BME280;32678;43.852;25.952;2022-12-19T11:14:17;103738.88;;;2.09;67.78
46944;BME280;32678;43.852;25.952;2022-12-19T11:19:37;103737.63;;;2.36;66.88
46944;BME280;32678;43.852;25.952;2022-12-19T11:24:55;103741.56;;;2.28;67.93
46944;BME280;32678;43.852;25.952;2022-12-19T11:30:17;103730.19;;;1.91;69.21
46944;BME280;32678;43.852;25.952;2022-12-19T11:35:44;103739.69;;;2.26;66.78
46944;BME280;32678;43.852;25.952;2022-12-19T11:40:43;103741.47;;;2.09;66.51
46944;BME280;32678;43.852;25.952;2022-12-19T11:45:50;103736.13;;;1.88;67.57
46944;BME280;32678;43.852;25.952;2022-12-19T11:50:53;103737.81;;;1.88;66.82
46944;BME280;32678;43.852;25.952;2022-12-19T11:55:59;103737.00;;;1.89;67.51
46944;BME280;32678;43.852;25.952;2022-12-19T12:00:59;103739.72;;;1.58;68.22
46944;BME280;32678;43.852;25.952;2022-12-19T12:06:06;103745.78;;;1.58;68.04
46944;BME280;32678;43.852;25.952;2022-12-19T12:11:15;103739.25;;;1.49;69.13
46944;BME280;32678;43.852;25.952;2022-12-19T12:16:39;103740.75;;;1.78;68.60
46944;BME280;32678;43.852;25.952;2022-12-19T12:22:00;103744.28;;;2.13;66.78
46944;BME280;32678;43.852;25.952;2022-12-19T12:27:24;103740.28;;;2.20;65.29
46944;BME280;32678;43.852;25.952;2022-12-19T12:32:55;103747.00;;;2.16;65.55
46944;BME280;32678;43.852;25.952;2022-12-19T12:38:19;103742.94;;;2.22;65.30
46944;BME280;32678;43.852;25.952;2022-12-19T12:43:29;103741.28;;;2.06;65.30
46944;BME280;32678;43.852;25.952;2022-12-19T12:48:31;103745.09;;;2.12;64.93
46944;BME280;32678;43.852;25.952;2022-12-19T12:53:31;103748.69;;;1.98;66.21
46944;BME280;32678;43.852;25.952;2022-12-19T13:04:02;103752.59;;;2.79;63.58
46944;BME280;32678;43.852;25.952;2022-12-19T13:09:02;103748.56;;;2.31;64.50
46944;BME280;32678;43.852;25.952;2022-12-19T13:13:59;103755.81;;;2.38;64.39
46944;BME280;32678;43.852;25.952;2022-12-19T13:19:01;103755.56;;;2.15;64.66
46944;BME280;32678;43.852;25.952;2022-12-19T13:24:28;103761.38;;;2.28;65.10
46944;BME280;32678;43.852;25.952;2022-12-19T13:29:33;103771.44;;;2.39;64.53
46944;BME280;32678;43.852;25.952;2022-12-19T13:40:33;103753.44;;;2.07;65.37
46944;BME280;32678;43.852;25.952;2022-12-19T13:45:47;103752.19;;;1.99;65.34
46944;BME280;32678;43.852;25.952;2022-12-19T13:50:45;103756.50;;;1.82;66.03
46944;BME280;32678;43.852;25.952;2022-12-19T13:55:45;103753.72;;;1.95;65.13
46944;BME280;32678;43.852;25.952;2022-12-19T14:00:45;103752.19;;;2.16;64.40
46944;BME280;32678;43.852;25.952;2022-12-19T14:05:49;103753.09;;;1.83;64.10
46944;BME280;32678;43.852;25.952;2022-12-19T14:11:11;103758.81;;;1.94;64.18
46944;BME280;32678;43.852;25.952;2022-12-19T14:16:30;103755.19;;;1.90;62.45
46944;BME280;32678;43.852;25.952;2022-12-19T14:21:43;103755.13;;;2.06;63.11
46944;BME280;32678;43.852;25.952;2022-12-19T14:27:01;103770.78;;;1.92;63.22
46944;BME280;32678;43.852;25.952;2022-12-19T14:32:19;103776.41;;;2.01;63.10
46944;BME280;32678;43.852;25.952;2022-12-19T14:37:38;103786.72;;;1.99;63.70
46944;BME280;32678;43.852;25.952;2022-12-19T14:43:00;103783.88;;;1.95;63.54
46944;BME280;32678;43.852;25.952;2022-12-19T14:48:43;103764.94;;;1.96;63.75
46944;BME280;32678;43.852;25.952;2022-12-19T14:54:02;103782.22;;;2.13;63.19
46944;BME280;32678;43.852;25.952;2022-12-19T14:59:25;103788.97;;;1.93;63.79
46944;BME280;32678;43.852;25.952;2022-12-19T15:04:23;103789.66;;;2.07;64.10
46944;BME280;32678;43.852;25.952;2022-12-19T15:09:46;103784.22;;;2.18;63.13
46944;BME280;32678;43.852;25.952;2022-12-19T15:15:14;103783.31;;;2.18;63.15
46944;BME280;32678;43.852;25.952;2022-12-19T15:20:15;103779.22;;;2.39;63.22
46944;BME280;32678;43.852;25.952;2022-12-19T15:25:12;103768.81;;;2.22;63.79
46944;BME280;32678;43.852;25.952;2022-12-19T15:30:30;103772.88;;;2.16;63.96
46944;BME280;32678;43.852;25.952;2022-12-19T15:35:31;103788.28;;;1.80;64.77
46944;BME280;32678;43.852;25.952;2022-12-19T15:40:27;103792.00;;;1.85;65.33
46944;BME280;32678;43.852;25.952;2022-12-19T15:45:24;103784.69;;;1.94;64.78
46944;BME280;32678;43.852;25.952;2022-12-19T15:50:22;103795.53;;;1.87;65.26
46944;BME280;32678;43.852;25.952;2022-12-19T15:55:20;103790.16;;;1.50;66.00
46944;BME280;32678;43.852;25.952;2022-12-19T16:00:20;103783.38;;;1.52;66.27
46944;BME280;32678;43.852;25.952;2022-12-19T16:05:19;103795.34;;;1.66;66.51
46944;BME280;32678;43.852;25.952;2022-12-19T16:10:17;103800.56;;;1.67;66.54
46944;BME280;32678;43.852;25.952;2022-12-19T16:15:18;103806.44;;;1.97;65.78
46944;BME280;32678;43.852;25.952;2022-12-19T16:20:15;103812.59;;;1.99;65.20
46944;BME280;32678;43.852;25.952;2022-12-19T16:25:14;103815.03;;;1.80;66.10
46944;BME280;32678;43.852;25.952;2022-12-19T16:30:15;103822.56;;;1.59;66.20
46944;BME280;32678;43.852;25.952;2022-12-19T16:35:15;103821.59;;;1.57;66.85
46944;BME280;32678;43.852;25.952;2022-12-19T16:40:29;103822.09;;;1.50;67.16
46944;BME280;32678;43.852;25.952;2022-12-19T16:45:28;103815.75;;;1.78;67.15
46944;BME280;32678;43.852;25.952;2022-12-19T16:50:27;103810.50;;;1.76;67.08
46944;BME280;32678;43.852;25.952;2022-12-19T16:55:24;103821.25;;;1.67;66.91
46944;BME280;32678;43.852;25.952;2022-12-19T17:00:33;103822.06;;;1.83;66.24
46944;BME280;32678;43.852;25.952;2022-12-19T17:05:35;103823.59;;;1.63;66.73
46944;BME280;32678;43.852;25.952;2022-12-19T17:10:32;103820.88;;;1.60;67.23
46944;BME280;32678;43.852;25.952;2022-12-19T17:20:57;103813.75;;;2.06;65.98
46944;BME280;32678;43.852;25.952;2022-12-19T17:25:54;103803.34;;;2.04;65.47
46944;BME280;32678;43.852;25.952;2022-12-19T17:30:52;103825.53;;;1.99;65.36
46944;BME280;32678;43.852;25.952;2022-12-19T17:35:49;103829.47;;;1.93;65.58
46944;BME280;32678;43.852;25.952;2022-12-19T17:40:46;103823.28;;;1.89;66.66
46944;BME280;32678;43.852;25.952;2022-12-19T17:45:43;103833.84;;;2.10;65.59
46944;BME280;32678;43.852;25.952;2022-12-19T17:50:40;103829.69;;;2.13;65.48
46944;BME280;32678;43.852;25.952;2022-12-19T17:55:38;103838.84;;;1.91;65.98
46944;BME280;32678;43.852;25.952;2022-12-19T18:00:36;103839.44;;;1.53;67.56
46944;BME280;32678;43.852;25.952;2022-12-19T18:05:33;103839.13;;;1.30;67.95
46944;BME280;32678;43.852;25.952;2022-12-19T18:10:31;103836.53;;;1.47;67.65
46944;BME280;32678;43.852;25.952;2022-12-19T18:15:28;103849.72;;;1.51;67.59
46944;BME280;32678;43.852;25.952;2022-12-19T18:20:25;103856.22;;;1.28;67.47
46944;BME280;32678;43.852;25.952;2022-12-19T18:25:28;103848.34;;;1.42;66.94
46944;BME280;32678;43.852;25.952;2022-12-19T18:30:26;103851.72;;;1.57;65.71
46944;BME280;32678;43.852;25.952;2022-12-19T18:35:24;103837.44;;;1.31;65.75
46944;BME280;32678;43.852;25.952;2022-12-19T18:40:24;103840.66;;;0.96;66.82
46944;BME280;32678;43.852;25.952;2022-12-19T18:45:29;103834.66;;;0.81;67.40
46944;BME280;32678;43.852;25.952;2022-12-19T18:50:28;103832.09;;;1.44;65.42
46944;BME280;32678;43.852;25.952;2022-12-19T18:55:26;103834.50;;;0.94;66.25
46944;BME280;32678;43.852;25.952;2022-12-19T19:00:24;103832.31;;;1.16;65.60
46944;BME280;32678;43.852;25.952;2022-12-19T19:05:22;103841.66;;;1.14;65.68
46944;BME280;32678;43.852;25.952;2022-12-19T19:10:23;103841.59;;;0.82;65.96
46944;BME280;32678;43.852;25.952;2022-12-19T19:15:31;103845.63;;;0.77;66.84
46944;BME280;32678;43.852;25.952;2022-12-19T19:20:29;103829.78;;;1.02;66.33
46944;BME280;32678;43.852;25.952;2022-12-19T19:25:29;103828.59;;;0.80;66.75
46944;BME280;32678;43.852;25.952;2022-12-19T19:30:26;103840.03;;;0.40;68.43
46944;BME280;32678;43.852;25.952;2022-12-19T19:35:25;103830.16;;;0.48;68.09
46944;BME280;32678;43.852;25.952;2022-12-19T19:40:22;103830.81;;;0.74;67.61
46944;BME280;32678;43.852;25.952;2022-12-19T19:45:19;103832.00;;;0.65;68.30
46944;BME280;32678;43.852;25.952;2022-12-19T19:50:16;103843.03;;;0.77;67.96
46944;BME280;32678;43.852;25.952;2022-12-19T19:55:16;103846.88;;;1.30;66.83
46944;BME280;32678;43.852;25.952;2022-12-19T20:00:16;103848.94;;;1.05;66.94
46944;BME280;32678;43.852;25.952;2022-12-19T20:05:16;103836.94;;;0.91;67.45
46944;BME280;32678;43.852;25.952;2022-12-19T20:10:13;103847.56;;;0.81;67.08
46944;BME280;32678;43.852;25.952;2022-12-19T20:15:10;103838.78;;;0.94;65.90
46944;BME280;32678;43.852;25.952;2022-12-19T20:20:07;103822.75;;;0.99;65.78
46944;BME280;32678;43.852;25.952;2022-12-19T20:25:04;103827.25;;;1.03;65.46
46944;BME280;32678;43.852;25.952;2022-12-19T20:30:01;103841.53;;;1.27;64.90
46944;BME280;32678;43.852;25.952;2022-12-19T20:34:58;103831.22;;;1.60;63.61
46944;BME280;32678;43.852;25.952;2022-12-19T20:39:55;103820.94;;;0.98;65.12
46944;BME280;32678;43.852;25.952;2022-12-19T20:44:54;103845.28;;;1.49;64.02
46944;BME280;32678;43.852;25.952;2022-12-19T20:49:51;103835.94;;;1.20;65.23
46944;BME280;32678;43.852;25.952;2022-12-19T20:54:48;103834.06;;;1.01;65.83
46944;BME280;32678;43.852;25.952;2022-12-19T20:59:45;103826.03;;;1.44;64.75
46944;BME280;32678;43.852;25.952;2022-12-19T21:04:41;103820.06;;;1.61;63.60
46944;BME280;32678;43.852;25.952;2022-12-19T21:09:38;103815.69;;;1.44;64.52
46944;BME280;32678;43.852;25.952;2022-12-19T21:14:40;103822.78;;;1.48;64.45
46944;BME280;32678;43.852;25.952;2022-12-19T21:19:37;103812.13;;;1.58;64.29
46944;BME280;32678;43.852;25.952;2022-12-19T21:24:33;103812.03;;;1.72;63.81
46944;BME280;32678;43.852;25.952;2022-12-19T21:29:30;103807.66;;;1.71;63.27
46944;BME280;32678;43.852;25.952;2022-12-19T21:34:28;103818.97;;;1.09;64.71
46944;BME280;32678;43.852;25.952;2022-12-19T21:39:24;103812.94;;;1.57;64.03
46944;BME280;32678;43.852;25.952;2022-12-19T21:44:21;103812.31;;;1.45;63.38
46944;BME280;32678;43.852;25.952;2022-12-19T21:49:17;103813.50;;;1.67;63.04
46944;BME280;32678;43.852;25.952;2022-12-19T21:54:15;103808.81;;;1.77;62.40
46944;BME280;32678;43.852;25.952;2022-12-19T21:59:12;103798.13;;;1.87;62.01
46944;BME280;32678;43.852;25.952;2022-12-19T22:04:10;103798.41;;;1.26;64.35
46944;BME280;32678;43.852;25.952;2022-12-19T22:09:09;103797.94;;;1.50;63.36
46944;BME280;32678;43.852;25.952;2022-12-19T22:14:09;103792.97;;;1.38;64.53
46944;BME280;32678;43.852;25.952;2022-12-19T22:19:05;103795.16;;;1.63;63.85
46944;BME280;32678;43.852;25.952;2022-12-19T22:24:02;103786.44;;;1.45;64.70
46944;BME280;32678;43.852;25.952;2022-12-19T22:28:59;103774.25;;;1.58;64.31
46944;BME280;32678;43.852;25.952;2022-12-19T22:33:57;103780.22;;;1.57;64.13
46944;BME280;32678;43.852;25.952;2022-12-19T22:38:54;103780.72;;;1.34;64.49
46944;BME280;32678;43.852;25.952;2022-12-19T22:43:52;103764.63;;;1.40;63.97
46944;BME280;32678;43.852;25.952;2022-12-19T22:48:49;103768.19;;;1.25;64.55
46944;BME280;32678;43.852;25.952;2022-12-19T22:53:46;103775.13;;;1.59;64.84
46944;BME280;32678;43.852;25.952;2022-12-19T22:58:44;103767.94;;;1.69;64.45
46944;BME280;32678;43.852;25.952;2022-12-19T23:03:41;103761.41;;;1.60;64.44
46944;BME280;32678;43.852;25.952;2022-12-19T23:08:38;103776.81;;;1.74;64.55
46944;BME280;32678;43.852;25.952;2022-12-19T23:13:37;103763.59;;;1.86;64.08
46944;BME280;32678;43.852;25.952;2022-12-19T23:18:34;103768.47;;;1.80;63.44
46944;BME280;32678;43.852;25.952;2022-12-19T23:23:31;103755.47;;;1.96;63.48
46944;BME280;32678;43.852;25.952;2022-12-19T23:28:27;103752.75;;;1.93;63.38
46944;BME280;32678;43.852;25.952;2022-12-19T23:33:26;103749.22;;;2.09;63.25
46944;BME280;32678;43.852;25.952;2022-12-19T23:38:23;103744.94;;;2.27;62.60
46944;BME280;32678;43.852;25.952;2022-12-19T23:43:19;103747.88;;;2.35;61.68
46944;BME280;32678;43.852;25.952;2022-12-19T23:48:16;103751.16;;;2.31;60.88
46944;BME280;32678;43.852;25.952;2022-12-19T23:53:13;103750.72;;;2.39;60.56
46944;BME280;32678;43.852;25.952;2022-12-19T23:58:10;103753.69;;;2.29;60.06
